Terminal Aerodrome Forecast
Issued by NWS

Home | Current Version | Previous Version | Graphics & Text | Print | Product List | Glossary Off
Versions: 1 2 3 4 5 6 7 8 9 10 11 12 13 14

000
FTUS43 KGRB 040520
TAFATW
TAF
KATW 040520Z 0406/0506 28006KT P6SM SCT090
     FM041500 31010KT P6SM BKN045 BKN080
     FM050000 07004KT P6SM SCT040 SCT080=

USA.gov is the U.S. government's official web portal to all federal, state and local government web resources and services.